America, Illinois
Current Conditions -  °F | °C
As of 1:55 PM on Monday 24 Nov 2014 (Local Time) from KCIR Reporting Station
Scattered Clouds Scattered Clouds  
Wind Chill: 53°   Ceiling: Unl
Heat Index: 53°   Visibility: 10mi
Dew Point: 32°   Wind: 13mph
Humidity: 45%   Direction: 230°SW
Pressure: 29.79"   Gusts: 23mph
Location:  37.1575°N, 89.1781°W
Report Text: KCIR 241955Z AUTO 23011G20KT 10SM SCT050 12/00 A2979 RMK AO2 T01170001
Loading
Personal Weather Stations






























Interactive Weather Map New forecast layout! Learn more

10-Day Weather Forecast

Advertisements
Track Severe Weather on mobile